Time;durP1;ratioP1;P1;durP2;ratioP2;P2;SDS_P1;SDS_P2;PMS_P1;PMS_P2;Temp;Humidity;BMP_temperature;BMP_pressure;BME280_temperature;BME280_humidity;BME280_pressure;Samples;Min_cycle;Max_cycle;Signal;HPM_P1;HPM_P2
2022/09/16 00:02:18;;;;;;;15.95;7.82;;;;;;;13.99;100.00;98426.94;5113254;27;20442;-76
2022/09/16 00:04:47;;;;;;;14.25;7.40;;;;;;;13.94;100.00;98427.38;5113030;27;20040;-77
2022/09/16 00:07:15;;;;;;;13.88;7.55;;;;;;;14.03;100.00;98425.63;5112771;27;20523;-76
2022/09/16 00:09:42;;;;;;;15.82;7.85;;;;;;;13.88;100.00;98434.22;5113260;28;20048;-78
2022/09/16 00:12:10;;;;;;;14.65;7.20;;;;;;;13.86;100.00;98441.66;5113350;28;20051;-77
2022/09/16 00:14:38;;;;;;;16.48;7.75;;;;;;;13.79;100.00;98435.06;5113123;28;20062;-76
2022/09/16 00:17:05;;;;;;;12.75;7.03;;;;;;;13.89;100.00;98429.66;5112597;28;20040;-77
2022/09/16 00:19:33;;;;;;;12.50;6.40;;;;;;;14.03;100.00;98436.50;5113271;28;20047;-77
2022/09/16 00:22:02;;;;;;;12.20;6.40;;;;;;;13.93;100.00;98438.38;5113223;28;20404;-77
2022/09/16 00:24:29;;;;;;;15.85;6.60;;;;;;;13.95;100.00;98447.22;5113006;27;20100;-74
2022/09/16 00:26:57;;;;;;;11.00;5.82;;;;;;;13.96;100.00;98452.53;5113093;28;20054;-76
2022/09/16 00:29:24;;;;;;;12.13;5.97;;;;;;;13.97;100.00;98442.50;5112480;28;20044;-77
2022/09/16 00:31:52;;;;;;;13.25;6.60;;;;;;;13.94;100.00;98442.78;5112541;28;20048;-77
2022/09/16 00:34:19;;;;;;;13.27;5.95;;;;;;;13.88;100.00;98450.50;5112390;28;20066;-77
2022/09/16 00:36:47;;;;;;;17.70;6.50;;;;;;;14.08;100.00;98449.66;5112972;27;20040;-77
2022/09/16 00:39:16;;;;;;;16.13;6.75;;;;;;;13.98;100.00;98455.94;5112708;28;20044;-77
2022/09/16 00:41:44;;;;;;;12.60;6.20;;;;;;;14.04;100.00;98451.78;5112986;28;20481;-78
2022/09/16 00:44:44;;;;;;;13.82;6.25;;;;;;;13.97;100.00;98456.06;5112912;27;20067;-77
2022/09/16 00:47:13;;;;;;;12.38;6.25;;;;;;;13.98;100.00;98455.06;5112129;28;20035;-77
2022/09/16 00:49:40;;;;;;;16.63;6.25;;;;;;;14.02;100.00;98456.50;5112672;27;20114;-77
2022/09/16 00:52:08;;;;;;;14.50;6.53;;;;;;;13.96;100.00;98465.22;5113606;28;20113;-78
2022/09/16 00:54:38;;;;;;;12.77;6.63;;;;;;;13.82;100.00;98463.78;5116509;28;20093;-76
2022/09/16 00:57:08;;;;;;;13.50;6.60;;;;;;;13.82;100.00;98455.63;5115955;28;20373;-77
2022/09/16 00:59:37;;;;;;;13.38;6.35;;;;;;;13.71;100.00;98462.91;5116261;28;20055;-77
2022/09/16 01:02:07;;;;;;;14.35;6.45;;;;;;;13.66;100.00;98458.88;5116029;27;20077;-77
2022/09/16 01:04:38;;;;;;;12.48;6.32;;;;;;;13.69;100.00;98455.94;5116442;27;20043;-77
2022/09/16 01:07:06;;;;;;;12.85;6.13;;;;;;;13.70;100.00;98452.22;5116349;28;20043;-76
2022/09/16 01:09:34;;;;;;;13.77;6.75;;;;;;;13.77;100.00;98456.06;5116258;27;20043;-77
2022/09/16 01:12:03;;;;;;;14.98;6.20;;;;;;;13.81;100.00;98451.19;5116427;27;20054;-76
2022/09/16 01:17:21;;;;;;;13.35;6.45;;;;;;;13.73;100.00;98447.34;5117007;28;20039;-77
2022/09/16 01:20:04;;;;;;;17.33;6.43;;;;;;;13.78;100.00;98452.38;5116219;27;20055;-77
2022/09/16 01:22:46;;;;;;;13.63;6.95;;;;;;;13.86;100.00;98446.22;5117821;27;20040;-78
2022/09/16 01:25:22;;;;;;;14.40;6.50;;;;;;;13.93;100.00;98455.53;5097166;28;20101;-77
2022/09/16 01:28:06;;;;;;;11.85;6.05;;;;;;;13.75;100.00;98455.34;5096929;28;20405;-77
2022/09/16 01:30:47;;;;;;;12.98;6.10;;;;;;;13.76;100.00;98457.06;5094845;28;20093;-76
2022/09/16 01:33:20;;;;;;;14.38;6.20;;;;;;;13.70;100.00;98454.94;5096909;28;20066;-74
2022/09/16 01:35:59;;;;;;;14.50;6.07;;;;;;;13.69;100.00;98458.63;5096754;28;20048;-77
2022/09/16 01:38:40;;;;;;;14.93;6.00;;;;;;;13.64;100.00;98458.16;5104659;28;20047;-76
2022/09/16 01:41:10;;;;;;;18.92;6.35;;;;;;;13.65;100.00;98459.88;5117032;28;20044;-75
2022/09/16 01:43:45;;;;;;;11.65;6.18;;;;;;;13.47;100.00;98464.16;5115277;28;20043;-76
2022/09/16 01:46:19;;;;;;;18.80;7.20;;;;;;;13.45;100.00;98463.41;5115687;27;20044;-75
2022/09/16 01:48:53;;;;;;;15.70;6.65;;;;;;;13.31;100.00;98459.22;5115794;27;20304;-77
2022/09/16 01:51:23;;;;;;;15.35;6.47;;;;;;;13.21;100.00;98458.31;5116629;27;20081;-74
2022/09/16 01:53:54;;;;;;;15.40;6.50;;;;;;;13.06;100.00;98456.97;5117016;27;20047;-77
2022/09/16 01:56:26;;;;;;;15.60;6.63;;;;;;;13.11;100.00;98455.59;5117154;28;20036;-77
2022/09/16 01:58:56;;;;;;;15.77;6.47;;;;;;;13.02;100.00;98449.13;5114168;27;20046;-75
2022/09/16 02:01:31;;;;;;;12.70;6.40;;;;;;;12.99;100.00;98454.81;5116283;28;20382;-77
2022/09/16 02:04:01;;;;;;;15.65;6.63;;;;;;;12.97;100.00;98458.66;5115837;27;20046;-77
2022/09/16 02:06:31;;;;;;;12.38;6.45;;;;;;;13.02;100.00;98453.66;5116649;27;20043;-74
2022/09/16 02:09:00;;;;;;;15.77;6.72;;;;;;;13.10;100.00;98461.13;5115130;27;20040;-76
2022/09/16 02:11:27;;;;;;;14.57;6.30;;;;;;;13.03;100.00;98461.69;5114272;28;20051;-77
2022/09/16 02:13:59;;;;;;;12.70;6.38;;;;;;;12.91;100.00;98457.34;5114358;28;20051;-78
2022/09/16 02:16:35;;;;;;;14.20;6.60;;;;;;;12.98;100.00;98463.06;5116869;28;20123;-77
2022/09/16 02:19:07;;;;;;;13.18;6.50;;;;;;;12.84;100.00;98459.72;5115077;28;20051;-77
2022/09/16 02:21:36;;;;;;;16.08;7.38;;;;;;;12.84;100.00;98458.84;5114782;28;20043;-78
2022/09/16 02:24:07;;;;;;;18.48;9.27;;;;;;;12.86;100.00;98465.03;5114624;28;20100;-77
2022/09/16 02:26:38;;;;;;;24.40;12.90;;;;;;;12.95;100.00;98468.75;5116151;28;20050;-76
2022/09/16 02:29:11;;;;;;;31.48;15.70;;;;;;;12.91;100.00;98468.19;5116146;28;20043;-75
2022/09/16 02:31:40;;;;;;;38.78;17.75;;;;;;;12.89;100.00;98476.44;5114862;28;20043;-77
2022/09/16 02:34:09;;;;;;;45.38;21.30;;;;;;;12.81;100.00;98476.25;5114644;28;20093;-75
2022/09/16 02:36:38;;;;;;;44.35;20.50;;;;;;;12.74;100.00;98472.38;5114552;28;20093;-74
2022/09/16 02:39:08;;;;;;;39.70;18.95;;;;;;;12.74;100.00;98473.22;5114319;28;20044;-74
2022/09/16 02:41:37;;;;;;;34.95;17.10;;;;;;;12.80;100.00;98463.72;5114742;27;20105;-77
2022/09/16 02:44:04;;;;;;;33.55;16.63;;;;;;;12.78;100.00;98472.94;5114241;28;20047;-75
2022/09/16 02:46:38;;;;;;;30.95;14.55;;;;;;;12.69;100.00;98461.94;5114272;28;20076;-75
2022/09/16 02:49:11;;;;;;;23.55;11.18;;;;;;;12.71;100.00;98461.81;5111950;28;20044;-77
2022/09/16 02:51:43;;;;;;;17.35;8.27;;;;;;;12.69;100.00;98461.09;5092895;28;20055;-76
2022/09/16 02:54:15;;;;;;;14.88;7.63;;;;;;;12.57;100.00;98469.25;5093712;28;20036;-77
2022/09/16 02:56:43;;;;;;;13.32;7.00;;;;;;;12.62;100.00;98468.88;5102792;28;20376;-74
2022/09/16 02:59:12;;;;;;;14.25;6.60;;;;;;;12.60;100.00;98470.88;5113937;27;20455;-76
2022/09/16 03:01:43;;;;;;;14.32;7.05;;;;;;;12.64;100.00;98466.03;5113793;27;20481;-78
2022/09/16 03:04:13;;;;;;;13.15;6.32;;;;;;;12.66;100.00;98469.47;5114622;27;20036;-77
2022/09/16 03:06:41;;;;;;;13.30;6.97;;;;;;;12.57;100.00;98463.00;5114698;27;20040;-76
2022/09/16 03:09:11;;;;;;;11.45;6.53;;;;;;;12.63;100.00;98470.59;5114049;27;20397;-77
2022/09/16 03:12:14;;;;;;;14.85;7.05;;;;;;;12.63;100.00;98472.44;5113454;28;20119;-77
2022/09/16 03:15:05;;;;;;;13.38;6.85;;;;;;;12.56;100.00;98472.97;5113913;27;20051;-77
2022/09/16 03:17:49;;;;;;;14.00;6.68;;;;;;;12.50;100.00;98475.38;5113783;27;20051;-77
2022/09/16 03:20:22;;;;;;;14.25;6.55;;;;;;;12.52;100.00;98481.50;5113950;27;20051;-77
2022/09/16 03:22:56;;;;;;;14.60;7.13;;;;;;;12.57;100.00;98479.25;5114587;28;20485;-77
2022/09/16 03:25:31;;;;;;;13.23;6.90;;;;;;;12.54;100.00;98477.66;5114470;28;20048;-75
2022/09/16 03:28:02;;;;;;;14.03;6.90;;;;;;;12.57;100.00;98477.38;5115095;28;20054;-77
2022/09/16 03:30:32;;;;;;;15.27;8.05;;;;;;;12.83;100.00;98486.94;5115228;28;20305;-76
2022/09/16 03:33:05;;;;;;;13.98;7.30;;;;;;;12.71;100.00;98475.34;5113796;28;20059;-77
2022/09/16 03:35:37;;;;;;;12.48;6.38;;;;;;;12.82;100.00;98474.41;5113971;28;20111;-77
2022/09/16 03:38:07;;;;;;;15.75;6.78;;;;;;;12.56;100.00;98474.84;5114129;28;20035;-77
2022/09/16 03:40:34;;;;;;;18.60;7.93;;;;;;;12.55;100.00;98473.13;5113593;28;20043;-78
2022/09/16 03:43:11;;;;;;;12.18;6.30;;;;;;;12.59;100.00;98483.53;5113599;28;20058;-78
2022/09/16 03:45:39;;;;;;;16.83;7.22;;;;;;;12.64;100.00;98476.84;5113705;28;20044;-77
2022/09/16 03:48:07;;;;;;;15.10;7.32;;;;;;;12.63;100.00;98477.84;5112997;28;20513;-78
2022/09/16 03:50:36;;;;;;;15.27;6.93;;;;;;;12.77;100.00;98488.38;5113752;27;20050;-77
2022/09/16 03:53:04;;;;;;;13.88;6.80;;;;;;;12.94;100.00;98495.03;5113320;27;20100;-75
2022/09/16 03:55:32;;;;;;;15.02;6.57;;;;;;;12.88;100.00;98484.72;5113266;27;20046;-77
2022/09/16 03:57:59;;;;;;;12.75;6.07;;;;;;;12.94;100.00;98497.72;5113005;28;20044;-77
2022/09/16 04:00:28;;;;;;;13.07;6.80;;;;;;;12.89;100.00;98498.13;5111860;27;20157;-77
2022/09/16 04:02:56;;;;;;;14.38;6.38;;;;;;;12.78;100.00;98491.91;5113052;27;20043;-77
2022/09/16 04:05:23;;;;;;;14.27;6.72;;;;;;;12.97;100.00;98496.59;5112921;28;20496;-77
2022/09/16 04:07:52;;;;;;;15.55;6.55;;;;;;;12.96;100.00;98501.16;5113202;28;20120;-78
2022/09/16 04:10:20;;;;;;;12.10;5.97;;;;;;;12.97;100.00;98505.59;5112885;28;20097;-78
2022/09/16 04:12:47;;;;;;;13.43;6.40;;;;;;;13.12;100.00;98508.81;5112885;28;20047;-76
2022/09/16 04:15:15;;;;;;;15.18;6.63;;;;;;;12.95;100.00;98509.41;5114545;28;20039;-77
2022/09/16 04:17:43;;;;;;;15.60;6.72;;;;;;;13.01;100.00;98512.44;5112904;28;20489;-78
2022/09/16 04:20:10;;;;;;;12.60;5.85;;;;;;;12.88;100.00;98518.09;5113170;28;20047;-78
2022/09/16 04:22:38;;;;;;;12.40;6.10;;;;;;;13.01;100.00;98512.44;5113062;28;20560;-78
2022/09/16 04:25:08;;;;;;;11.75;6.07;;;;;;;12.92;100.00;98512.38;5112884;28;20048;-77
2022/09/16 04:27:36;;;;;;;11.00;5.97;;;;;;;13.04;100.00;98511.31;5116437;27;20513;-77
2022/09/16 04:30:04;;;;;;;15.52;6.30;;;;;;;12.99;100.00;98513.56;5117107;28;20043;-77
2022/09/16 04:32:31;;;;;;;14.90;5.82;;;;;;;12.94;100.00;98516.69;5117044;27;20043;-76
2022/09/16 04:34:59;;;;;;;12.38;5.57;;;;;;;12.96;100.00;98520.13;5116937;28;20405;-78
2022/09/16 04:37:26;;;;;;;12.82;5.78;;;;;;;12.93;100.00;98514.97;5116533;28;20043;-75
2022/09/16 04:39:54;;;;;;;12.43;5.60;;;;;;;13.10;100.00;98510.78;5116111;28;20396;-76
2022/09/16 04:42:23;;;;;;;14.48;5.93;;;;;;;13.10;100.00;98515.34;5116291;28;20115;-76
2022/09/16 04:44:51;;;;;;;12.65;5.60;;;;;;;13.17;100.00;98519.22;5112632;28;20051;-77
2022/09/16 04:47:18;;;;;;;12.45;5.28;;;;;;;13.18;100.00;98516.38;5113229;28;20421;-77
2022/09/16 04:49:46;;;;;;;9.98;5.10;;;;;;;13.15;100.00;98518.50;5112781;28;20058;-77
2022/09/16 04:52:13;;;;;;;10.98;5.38;;;;;;;13.01;100.00;98520.59;5113121;28;20557;-77
2022/09/16 04:54:41;;;;;;;13.32;5.18;;;;;;;13.15;100.00;98519.38;5112889;28;20493;-76
2022/09/16 04:57:08;;;;;;;12.15;5.32;;;;;;;13.16;100.00;98525.63;5113018;28;20044;-74
2022/09/16 04:59:37;;;;;;;12.73;5.30;;;;;;;13.11;100.00;98527.91;5113026;27;20435;-73
2022/09/16 05:02:05;;;;;;;13.10;5.55;;;;;;;12.94;100.00;98529.38;5112652;28;20051;-74
2022/09/16 05:04:32;;;;;;;11.30;4.95;;;;;;;13.01;100.00;98526.00;5113046;27;20059;-74
2022/09/16 05:07:00;;;;;;;13.07;5.07;;;;;;;12.93;100.00;98527.66;5112564;27;20428;-74
2022/09/16 05:09:27;;;;;;;13.82;5.35;;;;;;;12.93;100.00;98530.38;5113780;27;20054;-74
2022/09/16 05:11:55;;;;;;;38.35;19.73;;;;;;;12.95;100.00;98534.69;5115767;28;20043;-73
2022/09/16 05:14:23;;;;;;;12.30;5.90;;;;;;;12.84;100.00;98524.75;5115262;28;20063;-74
2022/09/16 05:16:52;;;;;;;13.40;6.15;;;;;;;13.16;100.00;98528.34;5114874;28;20047;-74
2022/09/16 05:19:20;;;;;;;19.15;7.45;;;;;;;13.02;100.00;98527.72;5115803;28;20431;-73
2022/09/16 05:21:47;;;;;;;16.40;7.30;;;;;;;13.22;100.00;98538.66;5115887;28;20048;-74
2022/09/16 05:24:15;;;;;;;17.80;8.48;;;;;;;13.05;100.00;98534.72;5115992;28;20054;-73
2022/09/16 05:26:43;;;;;;;17.35;7.22;;;;;;;13.25;100.00;98541.09;5115945;28;20047;-73
2022/09/16 05:29:13;;;;;;;19.23;7.97;;;;;;;13.36;100.00;98532.00;5115694;28;20047;-73
2022/09/16 05:31:42;;;;;;;20.08;7.50;;;;;;;13.18;100.00;98534.50;5115685;28;20062;-73
2022/09/16 05:34:14;;;;;;;15.80;6.53;;;;;;;13.13;100.00;98537.63;5115844;28;20043;-73
2022/09/16 05:36:43;;;;;;;15.25;7.38;;;;;;;13.23;100.00;98543.06;5115414;28;20096;-73
2022/09/16 05:39:11;;;;;;;19.17;7.28;;;;;;;13.26;100.00;98545.53;5114600;28;20366;-73
2022/09/16 05:41:39;;;;;;;15.27;6.78;;;;;;;13.31;100.00;98547.84;5115740;27;20118;-73
2022/09/16 05:44:07;;;;;;;15.35;6.70;;;;;;;13.32;100.00;98552.25;5115590;28;20088;-73
2022/09/16 05:46:35;;;;;;;13.30;5.50;;;;;;;13.29;100.00;98555.25;5115312;28;20039;-74
2022/09/16 05:49:02;;;;;;;15.57;6.60;;;;;;;13.39;100.00;98558.00;5115573;27;20066;-73
2022/09/16 05:51:32;;;;;;;14.80;5.43;;;;;;;13.37;100.00;98557.28;5115325;27;20114;-74
2022/09/16 05:54:00;;;;;;;12.85;5.18;;;;;;;13.41;100.00;98564.16;5115212;27;20443;-73
2022/09/16 05:56:29;;;;;;;13.45;7.32;;;;;;;13.47;100.00;98555.50;5115379;27;20044;-74
2022/09/16 05:58:58;;;;;;;10.98;5.25;;;;;;;13.46;100.00;98560.09;5115257;27;20044;-74
2022/09/16 06:01:29;;;;;;;12.05;5.43;;;;;;;13.43;100.00;98559.47;5110390;27;20097;-73
2022/09/16 06:03:57;;;;;;;10.02;5.03;;;;;;;13.49;100.00;98558.09;5101453;28;20056;-75
2022/09/16 06:06:26;;;;;;;16.20;5.28;;;;;;;13.50;100.00;98554.38;5114920;28;20104;-74
2022/09/16 06:08:57;;;;;;;12.52;5.60;;;;;;;13.48;100.00;98557.22;5115180;28;20039;-77
2022/09/16 06:11:26;;;;;;;11.27;5.28;;;;;;;13.47;100.00;98559.09;5116278;28;20048;-72
2022/09/16 06:13:55;;;;;;;12.73;5.28;;;;;;;13.51;100.00;98556.09;5114980;28;20052;-74
2022/09/16 06:16:24;;;;;;;11.50;5.18;;;;;;;13.43;100.00;98554.06;5114987;27;20043;-74
2022/09/16 06:18:52;;;;;;;13.57;5.30;;;;;;;13.44;100.00;98553.91;5114775;28;20054;-76
2022/09/16 06:21:19;;;;;;;14.48;5.90;;;;;;;13.47;100.00;98558.22;5114147;28;20059;-74
2022/09/16 06:23:47;;;;;;;10.52;5.03;;;;;;;13.41;100.00;98562.28;5106912;28;20051;-74
2022/09/16 06:26:19;;;;;;;9.38;4.90;;;;;;;13.45;100.00;98568.34;5105543;28;20097;-74
2022/09/16 06:28:48;;;;;;;11.88;5.70;;;;;;;13.33;100.00;98570.25;5103441;28;20557;-74
2022/09/16 06:31:17;;;;;;;12.30;5.90;;;;;;;13.48;100.00;98570.78;5108455;28;20523;-75
2022/09/16 06:33:45;;;;;;;11.75;5.63;;;;;;;13.55;100.00;98574.66;5107158;28;20048;-74
2022/09/16 06:36:15;;;;;;;10.60;5.20;;;;;;;13.54;100.00;98572.09;5114343;28;20052;-73
2022/09/16 06:38:43;;;;;;;13.95;6.30;;;;;;;13.59;100.00;98576.09;5102589;28;20520;-74
2022/09/16 06:41:12;;;;;;;15.45;5.93;;;;;;;13.56;100.00;98575.53;5094305;28;20048;-73
2022/09/16 06:43:41;;;;;;;11.40;5.65;;;;;;;13.64;100.00;98569.41;5093889;28;20043;-74
2022/09/16 06:46:12;;;;;;;12.95;7.05;;;;;;;13.59;100.00;98569.84;5095396;28;20044;-74
2022/09/16 06:48:41;;;;;;;14.73;7.38;;;;;;;13.59;100.00;98570.66;5114996;27;20066;-74
2022/09/16 06:51:11;;;;;;;12.10;7.22;;;;;;;13.64;100.00;98573.00;5105277;27;20451;-74
2022/09/16 06:53:39;;;;;;;13.32;7.20;;;;;;;13.72;100.00;98575.03;5106154;28;20051;-74
2022/09/16 06:56:09;;;;;;;12.43;6.90;;;;;;;13.67;100.00;98566.44;5104722;28;20035;-74
2022/09/16 06:58:38;;;;;;;12.48;7.30;;;;;;;13.64;100.00;98573.00;5114120;27;20135;-74
2022/09/16 07:01:08;;;;;;;13.65;6.60;;;;;;;13.59;100.00;98575.25;5109955;28;20067;-74
2022/09/16 07:03:38;;;;;;;16.08;6.80;;;;;;;13.67;100.00;98580.00;5112558;28;20511;-73
2022/09/16 07:06:06;;;;;;;12.52;7.00;;;;;;;13.60;100.00;98585.13;5112730;27;20043;-75
2022/09/16 07:08:37;;;;;;;14.13;7.10;;;;;;;13.62;100.00;98581.25;5112719;28;20046;-73
2022/09/16 07:11:06;;;;;;;11.73;6.95;;;;;;;13.66;100.00;98586.41;5113116;27;20563;-73
2022/09/16 07:13:34;;;;;;;13.95;6.80;;;;;;;13.66;100.00;98592.69;5106523;28;20055;-74
2022/09/16 07:16:03;;;;;;;13.70;7.28;;;;;;;13.73;100.00;98591.16;5107426;28;20052;-74
2022/09/16 07:18:33;;;;;;;14.40;7.38;;;;;;;13.79;100.00;98589.75;5112022;27;20047;-75
2022/09/16 07:21:04;;;;;;;11.93;6.97;;;;;;;13.81;100.00;98590.47;5112293;27;20044;-74
2022/09/16 07:23:33;;;;;;;11.70;6.68;;;;;;;13.86;100.00;98584.59;5110438;28;20039;-74
2022/09/16 07:26:02;;;;;;;13.30;7.10;;;;;;;13.92;100.00;98584.09;5112295;27;20050;-74
2022/09/16 07:28:30;;;;;;;13.45;7.07;;;;;;;13.94;100.00;98594.78;5106984;28;20454;-74
2022/09/16 07:31:00;;;;;;;14.48;7.38;;;;;;;14.01;100.00;98585.09;5112522;28;20080;-78
2022/09/16 07:33:28;;;;;;;14.80;6.80;;;;;;;13.92;100.00;98586.81;5110664;28;20042;-74
2022/09/16 07:36:00;;;;;;;13.32;7.85;;;;;;;14.00;100.00;98589.66;5110607;28;20051;-75
2022/09/16 07:38:29;;;;;;;15.82;8.00;;;;;;;14.11;100.00;98588.69;5110946;28;20050;-73
2022/09/16 07:40:56;;;;;;;11.70;7.20;;;;;;;14.05;100.00;98594.66;5112529;28;20046;-73
2022/09/16 07:43:24;;;;;;;14.57;7.00;;;;;;;14.02;100.00;98598.53;5112861;28;20047;-73
2022/09/16 07:45:56;;;;;;;13.27;7.07;;;;;;;13.91;100.00;98599.50;5113153;27;20100;-83
2022/09/16 07:48:24;;;;;;;11.80;7.03;;;;;;;13.93;100.00;98603.94;5098569;28;20089;-74
2022/09/16 07:50:56;;;;;;;12.95;7.22;;;;;;;13.89;100.00;98609.63;5112997;28;20063;-77
2022/09/16 07:53:26;;;;;;;12.82;7.80;;;;;;;13.77;100.00;98606.16;5113437;28;20051;-73
2022/09/16 07:55:54;;;;;;;12.38;7.43;;;;;;;13.90;100.00;98610.50;5109262;27;20059;-76
2022/09/16 07:58:21;;;;;;;12.63;7.03;;;;;;;13.95;100.00;98601.94;5109631;28;20074;-73
2022/09/16 08:00:50;;;;;;;13.30;6.85;;;;;;;13.89;100.00;98606.91;5109541;27;20047;-73
2022/09/16 08:03:17;;;;;;;12.50;7.75;;;;;;;13.93;100.00;98606.63;5113936;28;20054;-72
2022/09/16 08:05:45;;;;;;;13.18;7.30;;;;;;;13.99;100.00;98612.38;5113963;28;20047;-73
2022/09/16 08:08:13;;;;;;;11.27;6.32;;;;;;;14.07;100.00;98613.53;5113810;28;20039;-73
2022/09/16 08:10:42;;;;;;;10.93;6.43;;;;;;;14.03;100.00;98612.94;5113697;28;20681;-73
2022/09/16 08:13:09;;;;;;;13.43;6.18;;;;;;;14.20;100.00;98616.84;5113567;28;20063;-73
2022/09/16 08:15:37;;;;;;;13.13;5.80;;;;;;;14.07;100.00;98613.53;5106684;28;20051;-73
2022/09/16 08:18:05;;;;;;;10.25;5.70;;;;;;;14.13;100.00;98622.00;5106667;28;20043;-72
2022/09/16 08:20:32;;;;;;;10.55;5.97;;;;;;;14.10;100.00;98622.28;5098683;28;20405;-72
2022/09/16 08:23:00;;;;;;;11.70;5.45;;;;;;;14.08;100.00;98612.53;5096077;28;20040;-77
2022/09/16 08:25:28;;;;;;;13.65;5.20;;;;;;;14.20;99.62;98612.28;5113297;28;20047;-72
2022/09/16 08:27:56;;;;;;;8.65;5.05;;;;;;;14.18;98.90;98614.28;5113350;28;20508;-71
2022/09/16 08:30:24;;;;;;;11.07;5.50;;;;;;;14.23;98.61;98608.41;5113116;28;20050;-74
2022/09/16 08:32:56;;;;;;;10.50;5.00;;;;;;;14.36;95.88;98602.72;5113469;28;20051;-73
2022/09/16 08:35:24;;;;;;;12.07;6.20;;;;;;;14.45;96.60;98610.03;5114239;28;20398;-71
2022/09/16 08:37:52;;;;;;;8.07;4.70;;;;;;;14.52;95.58;98610.31;5112547;28;20044;-72
2022/09/16 08:40:22;;;;;;;9.60;5.20;;;;;;;14.57;94.36;98602.59;5113271;28;20407;-71
2022/09/16 08:43:00;;;;;;;9.93;5.15;;;;;;;14.56;95.59;98602.75;5113224;28;20093;-79
2022/09/16 08:45:34;;;;;;;10.77;6.00;;;;;;;14.53;95.36;98606.59;5113546;28;20046;-79
2022/09/16 08:48:24;;;;;;;11.23;5.20;;;;;;;14.51;93.48;98605.06;5115006;28;20047;-72
2022/09/16 08:50:52;;;;;;;10.68;5.15;;;;;;;14.56;93.41;98605.47;5115090;28;20043;-72
2022/09/16 08:53:25;;;;;;;9.55;4.90;;;;;;;14.56;93.15;98605.47;5108242;28;20122;-72
2022/09/16 08:55:53;;;;;;;11.73;5.30;;;;;;;14.60;93.86;98613.19;5115182;27;20040;-72
2022/09/16 08:58:24;;;;;;;10.80;5.65;;;;;;;14.51;93.90;98605.06;5115155;27;20099;-72
2022/09/16 09:00:55;;;;;;;10.15;5.85;;;;;;;14.67;92.62;98607.19;5115261;27;20036;-72
2022/09/16 09:03:36;;;;;;;11.68;4.90;;;;;;;14.71;89.21;98606.78;5116186;27;20040;-72
2022/09/16 09:06:08;;;;;;;8.48;4.60;;;;;;;14.71;89.22;98609.50;5113266;28;20051;-72
2022/09/16 09:08:43;;;;;;;9.25;4.65;;;;;;;14.68;89.06;98611.59;5113857;28;20045;-73
2022/09/16 09:11:16;;;;;;;11.00;4.95;;;;;;;14.82;88.75;98616.66;5114823;28;20044;-73
2022/09/16 09:14:02;;;;;;;9.25;4.38;;;;;;;14.81;88.99;98620.38;5113253;27;20055;-72
2022/09/16 09:16:38;;;;;;;9.55;4.40;;;;;;;14.81;88.21;98616.78;5114188;28;20048;-72
2022/09/16 09:19:19;;;;;;;8.73;4.00;;;;;;;14.92;86.01;98613.94;5115206;27;20097;-73
2022/09/16 09:21:53;;;;;;;9.57;3.95;;;;;;;14.98;87.19;98613.38;5116626;28;20040;-72
2022/09/16 09:24:32;;;;;;;10.43;3.88;;;;;;;14.95;87.37;98618.22;5114212;28;20048;-73
2022/09/16 09:27:05;;;;;;;8.27;4.22;;;;;;;14.93;87.78;98623.81;5111464;28;20047;-72
2022/09/16 09:29:58;;;;;;;8.85;3.88;;;;;;;14.99;88.67;98623.25;5112238;28;20160;-73
2022/09/16 09:32:30;;;;;;;9.02;3.90;;;;;;;15.13;87.92;98612.91;5094681;28;20412;-72
2022/09/16 09:35:20;;;;;;;7.18;3.92;;;;;;;15.18;87.71;98605.16;5112791;28;20542;-72
2022/09/16 09:38:19;;;;;;;7.18;3.20;;;;;;;15.20;86.44;98614.91;5114861;27;20043;-78
2022/09/16 09:40:51;;;;;;;9.27;3.35;;;;;;;15.42;86.01;98606.56;5114195;28;20057;-74
2022/09/16 09:43:20;;;;;;;5.32;2.90;;;;;;;15.28;87.43;98610.59;5115456;28;20050;-74
2022/09/16 09:45:58;;;;;;;10.05;3.70;;;;;;;15.41;84.99;98604.84;5114412;28;20100;-75
2022/09/16 09:48:29;;;;;;;10.02;3.78;;;;;;;15.48;85.17;98616.84;5114387;27;20118;-74
2022/09/16 09:51:01;;;;;;;10.57;3.70;;;;;;;15.55;85.09;98622.56;5114057;28;20040;-77
2022/09/16 09:53:33;;;;;;;7.18;3.08;;;;;;;15.48;84.30;98612.22;5112583;28;20055;-75
2022/09/16 09:56:08;;;;;;;8.57;3.50;;;;;;;15.58;83.56;98604.03;5115088;27;20052;-74
2022/09/16 09:58:40;;;;;;;9.30;3.50;;;;;;;15.57;85.21;98609.66;5114842;27;20040;-73
2022/09/16 10:01:11;;;;;;;6.70;3.25;;;;;;;15.65;84.98;98607.88;5113452;28;20048;-73
2022/09/16 10:03:39;;;;;;;10.60;3.53;;;;;;;15.68;85.14;98608.59;5114372;27;20053;-73
2022/09/16 10:06:06;;;;;;;7.47;3.22;;;;;;;15.67;84.44;98606.88;5113804;27;20047;-76
2022/09/16 10:08:38;;;;;;;6.88;3.10;;;;;;;15.68;83.78;98606.75;5109041;28;20049;-72
2022/09/16 10:11:16;;;;;;;7.22;3.22;;;;;;;15.63;83.84;98609.91;5101701;28;20512;-73
2022/09/16 10:13:48;;;;;;;8.70;3.22;;;;;;;15.53;86.22;98605.53;5104141;28;20078;-73
2022/09/16 10:16:20;;;;;;;8.07;3.67;;;;;;;15.49;85.35;98608.50;5102527;28;20048;-72
2022/09/16 10:18:59;;;;;;;8.15;2.88;;;;;;;15.40;85.79;98603.13;5115254;28;20111;-73
2022/09/16 10:21:39;;;;;;;7.97;2.80;;;;;;;15.46;86.60;98608.81;5115068;28;20050;-73
2022/09/16 10:24:28;;;;;;;9.32;3.05;;;;;;;15.45;85.31;98607.09;5114980;28;20043;-73
2022/09/16 10:26:56;;;;;;;8.65;2.92;;;;;;;15.48;84.50;98609.50;5114251;28;20054;-74
2022/09/16 10:29:23;;;;;;;9.88;3.40;;;;;;;15.48;82.07;98617.69;5114714;28;20043;-78
2022/09/16 10:31:53;;;;;;;6.15;2.60;;;;;;;15.40;81.58;98611.28;5114428;28;20039;-74
2022/09/16 10:34:25;;;;;;;10.23;4.03;;;;;;;15.39;82.44;98613.13;5108739;28;20043;-73
2022/09/16 10:37:03;;;;;;;10.00;3.20;;;;;;;15.21;85.04;98604.88;5099199;28;20105;-75
2022/09/16 10:39:32;;;;;;;8.65;3.17;;;;;;;15.26;86.05;98610.72;5098247;27;20087;-75
2022/09/16 10:42:00;;;;;;;8.38;3.17;;;;;;;15.28;86.97;98616.88;5104009;28;20055;-74
2022/09/16 10:44:29;;;;;;;6.03;3.13;;;;;;;15.43;84.49;98624.59;5105276;28;20386;-75
2022/09/16 10:47:01;;;;;;;5.90;2.78;;;;;;;15.50;83.33;98626.56;5110297;28;20039;-75
2022/09/16 10:49:34;;;;;;;4.78;2.50;;;;;;;15.55;81.22;98628.84;5100159;28;20062;-75
2022/09/16 10:52:13;;;;;;;7.75;2.45;;;;;;;15.51;80.79;98621.97;5098647;28;20051;-74
2022/09/16 10:54:42;;;;;;;5.68;2.40;;;;;;;15.56;81.11;98627.81;5102923;28;20050;-74
2022/09/16 10:57:24;;;;;;;5.75;2.70;;;;;;;15.48;82.59;98622.28;5102368;28;20044;-74
2022/09/16 11:00:07;;;;;;;7.43;2.65;;;;;;;15.49;83.37;98622.13;5095382;28;20051;-78
2022/09/16 11:02:58;;;;;;;7.65;3.15;;;;;;;15.51;82.57;98621.97;5093062;28;20040;-79
2022/09/16 11:05:31;;;;;;;4.53;2.30;;;;;;;15.38;81.11;98614.13;5106460;28;20047;-74
2022/09/16 11:08:06;;;;;;;6.32;2.30;;;;;;;15.38;81.66;98626.91;5113520;28;20489;-75
2022/09/16 11:10:38;;;;;;;6.22;2.65;;;;;;;15.32;82.18;98622.88;5115307;27;20035;-76
2022/09/16 11:13:38;;;;;;;6.75;2.63;;;;;;;15.24;80.02;98620.88;5115145;27;20059;-74
2022/09/16 11:16:19;;;;;;;7.40;2.40;;;;;;;15.24;80.95;98620.88;5114124;27;20048;-73
2022/09/16 11:18:55;;;;;;;6.15;2.38;;;;;;;15.17;80.92;98626.06;5113109;27;20044;-79
2022/09/16 11:21:55;;;;;;;4.97;2.13;;;;;;;15.20;78.97;98622.19;5114383;27;20039;-75
2022/09/16 11:25:08;;;;;;;6.10;2.50;;;;;;;15.23;79.04;98624.63;5090555;28;20047;-76
2022/09/16 11:27:44;;;;;;;6.20;2.20;;;;;;;15.18;78.47;98630.50;5024063;28;20120;-83
2022/09/16 11:30:13;;;;;;;7.88;2.40;;;;;;;15.17;77.26;98625.19;5031886;28;20061;-84
2022/09/16 11:33:05;;;;;;;8.43;2.20;;;;;;;15.06;76.15;98618.06;5030183;28;20259;-80
2022/09/16 11:35:41;;;;;;;5.90;2.35;;;;;;;15.07;78.39;98615.22;5020336;28;20066;-76
2022/09/16 11:38:17;;;;;;;6.63;2.33;;;;;;;15.22;77.85;98612.03;5031459;28;20523;-72
2022/09/16 11:40:47;;;;;;;4.70;2.50;;;;;;;15.48;79.13;98616.84;5030540;28;20442;-72
2022/09/16 11:43:40;;;;;;;6.20;2.28;;;;;;;15.54;78.11;98610.78;5032209;28;20058;-72
2022/09/16 11:46:11;;;;;;;5.35;2.50;;;;;;;15.69;76.90;98602.13;5031571;28;20083;-74